Fithian, Illinois
Current Conditions -  °F | °C
As of 7:35 AM on Thursday 23 Oct 2014 (Local Time) from KDNV Reporting Station
Haze Haze  
Wind Chill: 37°   Ceiling: 700
Heat Index: 37°   Visibility: 1.5mi
Dew Point: 37°   Wind: 0mph
Humidity: 99%   Direction: NA
Pressure: 30.22"   Gusts: NA
Location:  40.11°N, 87.87°W
Report Text: KDNV 231235Z AUTO 00000KT 1 1/2SM BR VV007 03/03 A3022 RMK AO2 T00270025
Loading
Personal Weather Stations






























Interactive Weather Map
Tropical Storm Tracking
New forecast layout! Learn more

10-Day Weather Forecast

Advertisements
Track Severe Weather on mobile